Terminal Aerodrome Forecast
Issued by NWS

Home | Current Version | Previous Version | Text Only | Print | Product List | Glossary Off
Versions: 1 2 3 4 5 6 7 8 9 10 11 12 13 14 15

000
FTUS43 KGRB 181734
TAFCWA
TAF
KCWA 181734Z 1818/1918 06010G15KT P6SM OVC022
     FM182100 02010G15KT P6SM VCSH OVC018
     FM190000 01010G18KT P6SM BKN025
     FM190200 01011G16KT P6SM SCT150
     FM190500 35008KT P6SM SKC=

USA.gov is the U.S. government's official web portal to all federal, state and local government web resources and services.